Time;durP1;ratioP1;P1;durP2;ratioP2;P2;SDS_P1;SDS_P2;PMS_P1;PMS_P2;Temp;Humidity;BMP_temperature;BMP_pressure;BME280_temperature;BME280_humidity;BME280_pressure;Samples;Min_cycle;Max_cycle;Signal;HPM_P1;HPM_P2
2022/05/22 00:00:53;;;;;;;8.40;4.20;;;12.50;99.90;;;;;;5080899;28;20207;-68
2022/05/22 00:03:20;;;;;;;3.70;2.57;;;12.50;99.90;;;;;;5086460;28;20654;-67
2022/05/22 00:05:46;;;;;;;3.20;2.90;;;12.50;99.90;;;;;;5075566;28;20277;-67
2022/05/22 00:08:14;;;;;;;2.83;2.53;;;12.50;99.90;;;;;;5085416;28;20292;-67
2022/05/22 00:10:41;;;;;;;2.90;2.50;;;12.50;99.90;;;;;;5096731;28;20212;-68
2022/05/22 00:13:07;;;;;;;3.77;2.70;;;12.50;99.90;;;;;;5076145;28;20313;-67
2022/05/22 00:15:37;;;;;;;3.13;2.50;;;12.50;99.90;;;;;;5069298;28;20311;-67
2022/05/22 00:18:06;;;;;;;4.20;2.73;;;12.50;99.90;;;;;;5075869;28;20232;-67
2022/05/22 00:20:34;;;;;;;2.57;2.37;;;12.50;99.90;;;;;;5075964;28;20215;-66
2022/05/22 00:23:01;;;;;;;4.10;2.60;;;12.50;99.90;;;;;;5075312;28;20746;-67
2022/05/22 00:25:28;;;;;;;4.57;2.60;;;12.50;99.90;;;;;;5068249;28;20235;-67
2022/05/22 00:27:55;;;;;;;2.67;2.43;;;12.50;99.90;;;;;;5087547;28;20249;-66
2022/05/22 00:30:22;;;;;;;2.60;2.40;;;12.50;99.90;;;;;;5086996;28;20227;-67
2022/05/22 00:32:49;;;;;;;3.37;2.70;;;12.50;99.90;;;;;;5076098;28;20292;-67
2022/05/22 00:35:17;;;;;;;3.00;2.13;;;12.50;99.90;;;;;;5076526;28;20205;-67
2022/05/22 00:37:44;;;;;;;2.60;2.40;;;12.50;99.90;;;;;;5073114;28;20244;-67
2022/05/22 00:40:11;;;;;;;2.50;2.30;;;12.50;99.90;;;;;;5076119;28;20284;-67
2022/05/22 00:42:42;;;;;;;3.27;2.27;;;12.50;99.90;;;;;;5076226;28;20293;-67
2022/05/22 00:45:09;;;;;;;3.57;2.20;;;12.50;99.90;;;;;;5075674;28;20244;-67
2022/05/22 00:47:36;;;;;;;2.53;2.10;;;12.50;99.90;;;;;;5074418;28;20217;-67
2022/05/22 00:50:05;;;;;;;2.63;2.43;;;12.50;99.90;;;;;;5069990;28;20205;-66
2022/05/22 00:52:36;;;;;;;3.17;2.27;;;12.40;99.90;;;;;;5068943;28;20320;-67
2022/05/22 00:55:08;;;;;;;2.90;1.90;;;12.50;99.90;;;;;;5065197;28;20719;-67
2022/05/22 00:57:39;;;;;;;3.20;2.10;;;12.40;99.90;;;;;;5074283;28;20251;-67
2022/05/22 01:00:09;;;;;;;4.17;2.93;;;12.40;99.90;;;;;;5074767;28;20201;-67
2022/05/22 01:05:17;;;;;;;2.10;1.90;;;12.40;99.90;;;;;;5074276;28;20297;-67
2022/05/22 01:07:46;;;;;;;4.17;2.10;;;12.40;99.90;;;;;;5075808;28;20228;-67
2022/05/22 01:10:14;;;;;;;1.67;1.57;;;12.40;99.90;;;;;;5073999;28;20210;-67
2022/05/22 01:12:43;;;;;;;1.77;1.60;;;12.40;99.90;;;;;;5075792;28;20251;-67
2022/05/22 01:15:10;;;;;;;2.80;1.70;;;12.40;99.90;;;;;;5073176;28;20271;-67
2022/05/22 01:17:40;;;;;;;2.80;1.70;;;12.40;99.90;;;;;;5076451;28;20218;-67
2022/05/22 01:20:08;;;;;;;2.07;1.80;;;12.40;99.90;;;;;;5074935;28;20205;-67
2022/05/22 01:22:37;;;;;;;2.67;1.90;;;12.30;99.90;;;;;;5075282;28;20204;-67
2022/05/22 01:25:04;;;;;;;1.70;1.60;;;12.30;99.90;;;;;;5076636;28;20228;-67
2022/05/22 01:27:31;;;;;;;3.73;2.13;;;12.30;99.90;;;;;;5075929;28;20575;-67
2022/05/22 01:30:11;;;;;;;1.60;1.50;;;12.30;99.90;;;;;;5074285;28;20229;-66
2022/05/22 01:32:40;;;;;;;2.83;1.73;;;12.30;99.90;;;;;;5075824;28;20389;-67
2022/05/22 01:35:07;;;;;;;3.40;1.80;;;12.30;99.90;;;;;;5077607;28;20210;-67
2022/05/22 01:37:36;;;;;;;2.87;1.70;;;12.30;99.90;;;;;;5075783;28;20646;-66
2022/05/22 01:40:03;;;;;;;2.70;1.73;;;12.30;99.90;;;;;;5070149;28;20202;-67
2022/05/22 01:42:31;;;;;;;2.73;1.60;;;12.30;99.90;;;;;;5075548;28;20201;-68
2022/05/22 01:44:58;;;;;;;2.70;1.80;;;12.20;99.90;;;;;;5071366;28;20209;-67
2022/05/22 01:47:24;;;;;;;1.83;1.60;;;12.20;99.90;;;;;;5076391;28;20280;-66
2022/05/22 01:49:51;;;;;;;2.33;1.60;;;12.20;99.90;;;;;;5075346;28;20276;-68
2022/05/22 01:52:18;;;;;;;3.37;1.63;;;12.20;99.90;;;;;;5075594;28;20217;-67
2022/05/22 01:54:47;;;;;;;2.60;1.70;;;12.20;99.90;;;;;;5075998;28;20255;-67
2022/05/22 01:57:14;;;;;;;2.83;1.83;;;12.20;99.90;;;;;;5086909;28;20206;-67
2022/05/22 01:59:41;;;;;;;2.90;1.60;;;12.20;99.90;;;;;;5075807;28;20237;-67
2022/05/22 02:02:08;;;;;;;2.53;1.70;;;12.20;99.90;;;;;;5073740;28;20733;-66
2022/05/22 02:04:35;;;;;;;3.70;2.00;;;12.20;99.90;;;;;;5082231;28;20644;-67
2022/05/22 02:09:48;;;;;;;3.83;1.67;;;12.10;99.90;;;;;;5062815;28;20350;-66
2022/05/22 02:12:15;;;;;;;1.40;1.30;;;12.10;99.90;;;;;;5076509;28;20256;-66
2022/05/22 02:14:42;;;;;;;2.93;1.50;;;12.10;99.90;;;;;;5072401;28;20323;-66
2022/05/22 02:17:09;;;;;;;3.13;1.80;;;12.10;99.90;;;;;;5069041;28;20576;-67
2022/05/22 02:19:36;;;;;;;3.23;1.20;;;12.10;99.90;;;;;;5072991;28;20729;-67
2022/05/22 02:22:03;;;;;;;3.27;1.83;;;12.10;99.90;;;;;;5075362;28;20240;-67
2022/05/22 02:24:30;;;;;;;2.77;1.50;;;12.10;99.90;;;;;;5074668;28;20288;-66
2022/05/22 02:26:59;;;;;;;4.43;1.43;;;12.10;99.90;;;;;;5066134;28;20281;-67
2022/05/22 02:29:25;;;;;;;2.80;1.30;;;12.10;99.90;;;;;;5070639;28;20253;-67
2022/05/22 02:31:52;;;;;;;1.43;1.20;;;12.00;99.90;;;;;;5083100;28;20284;-66
2022/05/22 02:34:19;;;;;;;3.20;1.40;;;12.00;99.90;;;;;;5081559;28;20649;-68
2022/05/22 02:36:46;;;;;;;2.60;1.47;;;12.00;99.90;;;;;;5077305;28;20201;-66
2022/05/22 02:39:13;;;;;;;2.87;1.30;;;12.00;99.90;;;;;;5096027;28;20338;-67
2022/05/22 02:41:40;;;;;;;2.70;1.57;;;12.00;99.90;;;;;;5075254;28;20206;-67
2022/05/22 02:44:08;;;;;;;1.30;1.20;;;12.00;99.90;;;;;;5070000;28;20308;-66
2022/05/22 02:46:35;;;;;;;1.70;1.60;;;12.00;99.90;;;;;;5074432;28;20293;-67
2022/05/22 02:49:02;;;;;;;1.60;1.50;;;12.00;99.90;;;;;;5073549;28;20205;-66
2022/05/22 02:51:29;;;;;;;2.67;1.63;;;12.00;99.90;;;;;;5070055;28;20209;-67
2022/05/22 02:53:55;;;;;;;1.87;1.70;;;11.90;99.90;;;;;;5077445;28;20293;-68
2022/05/22 02:56:25;;;;;;;2.03;1.70;;;12.00;99.90;;;;;;5080012;28;20202;-67
2022/05/22 02:58:52;;;;;;;1.60;1.50;;;12.00;99.90;;;;;;5078797;28;20221;-67
2022/05/22 03:01:20;;;;;;;2.73;1.60;;;12.00;99.90;;;;;;5086384;28;20201;-67
2022/05/22 03:03:47;;;;;;;2.33;1.67;;;12.00;99.90;;;;;;5084976;28;20201;-66
2022/05/22 03:08:59;;;;;;;2.00;1.90;;;12.00;99.90;;;;;;5078183;28;20265;-67
2022/05/22 03:11:26;;;;;;;2.50;1.90;;;12.00;99.90;;;;;;5077773;28;20229;-67
2022/05/22 03:13:52;;;;;;;1.90;1.70;;;12.00;99.90;;;;;;5065924;28;20245;-68
2022/05/22 03:16:21;;;;;;;2.00;1.80;;;12.00;99.90;;;;;;5066954;28;20211;-67
2022/05/22 03:18:48;;;;;;;2.77;1.83;;;12.00;99.90;;;;;;5078190;28;20282;-66
2022/05/22 03:21:14;;;;;;;3.30;1.70;;;12.00;99.90;;;;;;5077914;28;20297;-68
2022/05/22 03:23:42;;;;;;;1.77;1.67;;;12.00;99.90;;;;;;5075448;28;20291;-68
2022/05/22 03:26:10;;;;;;;2.20;2.00;;;12.00;99.90;;;;;;5078824;28;20262;-67
2022/05/22 03:28:37;;;;;;;1.70;1.60;;;11.90;99.90;;;;;;5070042;28;20222;-67
2022/05/22 03:31:04;;;;;;;4.03;2.00;;;12.10;99.90;;;;;;5073547;28;20208;-67
2022/05/22 03:33:32;;;;;;;2.10;1.90;;;12.10;99.90;;;;;;5078538;28;20279;-67
2022/05/22 03:35:59;;;;;;;1.73;1.63;;;12.00;99.90;;;;;;5077908;28;20205;-66
2022/05/22 03:38:26;;;;;;;1.73;1.57;;;12.00;99.90;;;;;;5078614;28;20209;-67
2022/05/22 03:40:53;;;;;;;2.53;1.83;;;12.00;99.90;;;;;;5077483;28;20237;-66
2022/05/22 03:43:20;;;;;;;1.93;1.70;;;12.00;99.90;;;;;;5066324;28;20261;-68
2022/05/22 03:45:47;;;;;;;1.80;1.70;;;12.00;99.90;;;;;;5068305;28;20240;-68
2022/05/22 03:48:14;;;;;;;2.57;2.00;;;12.00;99.90;;;;;;5077979;28;20212;-67
2022/05/22 03:50:42;;;;;;;1.63;1.53;;;12.00;99.90;;;;;;5072278;28;20247;-67
2022/05/22 03:53:09;;;;;;;4.20;1.83;;;12.00;99.90;;;;;;5077181;28;20320;-66
2022/05/22 03:55:36;;;;;;;2.10;1.90;;;12.00;99.90;;;;;;5075105;28;20205;-67
2022/05/22 03:58:03;;;;;;;1.93;1.80;;;12.10;99.90;;;;;;5075648;28;20279;-67
2022/05/22 04:00:30;;;;;;;2.17;1.97;;;12.10;99.90;;;;;;5075624;28;20232;-67
2022/05/22 04:02:57;;;;;;;2.10;1.90;;;12.10;99.90;;;;;;5074519;28;20383;-66
2022/05/22 04:05:24;;;;;;;2.00;1.90;;;12.10;99.90;;;;;;5074172;28;20316;-67
2022/05/22 04:07:52;;;;;;;2.20;1.93;;;12.10;99.90;;;;;;5090083;28;20590;-67
2022/05/22 04:10:20;;;;;;;1.67;1.57;;;12.10;99.90;;;;;;5075080;28;20604;-67
2022/05/22 04:12:47;;;;;;;2.20;1.80;;;12.10;99.90;;;;;;5074238;28;20221;-67
2022/05/22 04:15:18;;;;;;;2.50;2.27;;;12.20;99.90;;;;;;5074750;28;20323;-67
2022/05/22 04:17:45;;;;;;;2.77;2.00;;;12.20;99.90;;;;;;5074710;28;20204;-67
2022/05/22 04:20:12;;;;;;;2.17;1.97;;;12.30;99.90;;;;;;5085359;28;20204;-66
2022/05/22 04:25:22;;;;;;;1.67;1.57;;;12.30;99.90;;;;;;5071329;28;20207;-67
2022/05/22 04:27:49;;;;;;;2.93;1.77;;;12.30;99.90;;;;;;5075132;28;20275;-67
2022/05/22 04:30:18;;;;;;;1.67;1.57;;;12.30;99.90;;;;;;5075417;28;20309;-67
2022/05/22 04:32:46;;;;;;;2.57;1.90;;;12.20;99.90;;;;;;5074920;28;20225;-67
2022/05/22 04:35:13;;;;;;;2.27;2.00;;;12.30;99.90;;;;;;5074953;28;20640;-66
2022/05/22 04:37:40;;;;;;;1.93;1.73;;;12.20;99.90;;;;;;5075830;28;20287;-66
2022/05/22 04:40:09;;;;;;;2.10;1.90;;;12.20;99.90;;;;;;5075187;28;20300;-66
2022/05/22 04:42:37;;;;;;;3.97;1.80;;;12.20;99.90;;;;;;5068370;28;20206;-67
2022/05/22 04:45:07;;;;;;;2.40;1.70;;;12.20;99.90;;;;;;5068115;28;20205;-66
2022/05/22 04:47:37;;;;;;;2.63;2.03;;;12.20;99.90;;;;;;5060812;28;20301;-66
2022/05/22 04:50:05;;;;;;;1.70;1.60;;;12.20;99.90;;;;;;5073233;28;20601;-66
2022/05/22 04:52:32;;;;;;;1.73;1.50;;;12.20;99.90;;;;;;5074907;28;20213;-67
2022/05/22 04:54:59;;;;;;;2.63;1.90;;;12.20;99.90;;;;;;5074796;28;20677;-67
2022/05/22 04:57:26;;;;;;;2.80;1.57;;;12.20;99.90;;;;;;5074624;28;20685;-67
2022/05/22 04:59:55;;;;;;;3.10;1.80;;;12.20;99.90;;;;;;5074779;28;20229;-67
2022/05/22 05:02:23;;;;;;;1.70;1.50;;;12.20;99.90;;;;;;5074480;28;20643;-67
2022/05/22 05:04:53;;;;;;;1.73;1.63;;;12.20;99.90;;;;;;5074504;28;20223;-67
2022/05/22 05:07:20;;;;;;;3.27;2.20;;;12.30;99.90;;;;;;5069618;28;20295;-67
2022/05/22 05:09:47;;;;;;;3.07;2.40;;;12.30;99.90;;;;;;5074899;28;20212;-66
2022/05/22 05:12:14;;;;;;;2.13;1.63;;;12.30;99.90;;;;;;5074964;28;20243;-66
2022/05/22 05:14:42;;;;;;;1.90;1.80;;;12.40;99.90;;;;;;5072431;28;20300;-66
2022/05/22 05:17:11;;;;;;;2.97;2.10;;;12.40;99.90;;;;;;5069019;28;20272;-67
2022/05/22 05:19:38;;;;;;;2.03;1.83;;;12.40;99.90;;;;;;5074878;28;20235;-66
2022/05/22 05:22:06;;;;;;;2.40;2.00;;;12.50;99.90;;;;;;5072901;28;20298;-68
2022/05/22 05:24:33;;;;;;;2.53;2.43;;;12.40;99.90;;;;;;5074078;28;20202;-66
2022/05/22 05:27:01;;;;;;;1.93;1.80;;;12.40;99.90;;;;;;5071069;28;20285;-67
2022/05/22 05:29:28;;;;;;;2.20;2.00;;;12.40;99.90;;;;;;5074280;28;20229;-67
2022/05/22 05:31:55;;;;;;;1.87;1.67;;;12.50;99.90;;;;;;5074936;28;20608;-67
2022/05/22 05:34:23;;;;;;;4.10;1.67;;;12.50;99.90;;;;;;5074816;28;20228;-66
2022/05/22 05:36:50;;;;;;;1.87;1.77;;;12.50;99.90;;;;;;5073052;28;20205;-67
2022/05/22 05:39:17;;;;;;;2.60;1.73;;;12.50;99.90;;;;;;5059424;28;20572;-67
2022/05/22 05:41:45;;;;;;;2.40;2.00;;;12.60;99.90;;;;;;5085207;28;20296;-68
2022/05/22 05:44:12;;;;;;;1.50;1.40;;;12.60;99.90;;;;;;5091876;28;20200;-67
2022/05/22 05:46:40;;;;;;;2.37;1.80;;;12.70;99.90;;;;;;5086848;28;20266;-67
2022/05/22 05:49:08;;;;;;;3.13;1.93;;;12.70;99.90;;;;;;5088745;28;20630;-67
2022/05/22 05:51:37;;;;;;;1.67;1.50;;;12.90;99.90;;;;;;5090838;28;20211;-67
2022/05/22 05:54:04;;;;;;;2.10;1.67;;;13.00;99.90;;;;;;5082914;28;20220;-66
2022/05/22 05:56:31;;;;;;;1.77;1.50;;;13.00;99.90;;;;;;5078795;28;20231;-66
2022/05/22 05:58:58;;;;;;;2.17;1.87;;;13.10;99.90;;;;;;5076699;28;20236;-68
2022/05/22 06:01:25;;;;;;;3.90;1.50;;;13.20;99.90;;;;;;5074509;28;20273;-68
2022/05/22 06:03:53;;;;;;;1.50;1.33;;;13.40;99.90;;;;;;5080871;28;20213;-68
2022/05/22 06:06:20;;;;;;;1.50;1.40;;;13.50;99.90;;;;;;5075428;28;20643;-71
2022/05/22 06:08:49;;;;;;;3.20;1.43;;;13.70;99.90;;;;;;5063239;28;20249;-71
2022/05/22 06:11:16;;;;;;;2.10;1.10;;;13.80;99.90;;;;;;5076911;28;20242;-71
2022/05/22 06:13:43;;;;;;;2.33;1.20;;;13.80;99.90;;;;;;5079060;28;20248;-72
2022/05/22 06:16:10;;;;;;;1.73;1.47;;;13.90;99.90;;;;;;5076326;28;20206;-67
2022/05/22 06:18:37;;;;;;;2.50;1.30;;;14.00;99.90;;;;;;5074829;28;20240;-68
2022/05/22 06:21:17;;;;;;;2.27;1.30;;;14.10;99.90;;;;;;5060951;28;20209;-66
2022/05/22 06:23:44;;;;;;;1.43;1.30;;;14.20;99.90;;;;;;5075940;28;20195;-67
2022/05/22 06:26:15;;;;;;;2.20;1.00;;;14.20;99.90;;;;;;5073784;28;20232;-67
2022/05/22 06:28:42;;;;;;;2.00;1.20;;;14.20;99.90;;;;;;5072879;28;20312;-67
2022/05/22 06:31:09;;;;;;;1.30;1.20;;;14.20;99.90;;;;;;5080845;28;20705;-67
2022/05/22 06:33:37;;;;;;;1.30;1.20;;;14.10;99.90;;;;;;5077668;28;20270;-67
2022/05/22 06:36:08;;;;;;;1.53;0.90;;;14.20;99.90;;;;;;5080101;28;20231;-67
2022/05/22 06:41:21;;;;;;;2.17;0.70;;;14.30;99.90;;;;;;5078818;28;20247;-67
2022/05/22 06:43:49;;;;;;;1.40;1.00;;;14.30;99.90;;;;;;5062640;28;20213;-67
2022/05/22 06:46:17;;;;;;;1.30;1.20;;;14.30;99.90;;;;;;5071736;28;20216;-66
2022/05/22 06:48:44;;;;;;;1.43;1.30;;;14.20;99.90;;;;;;5078725;28;20527;-66
2022/05/22 06:51:11;;;;;;;2.30;1.00;;;14.20;99.90;;;;;;5077468;28;20641;-66
2022/05/22 06:53:38;;;;;;;2.57;1.10;;;14.10;99.90;;;;;;5082376;28;20319;-67
2022/05/22 06:56:05;;;;;;;1.70;1.07;;;14.10;99.90;;;;;;5069667;28;20784;-67
2022/05/22 06:58:36;;;;;;;1.40;1.30;;;14.20;99.90;;;;;;5076552;28;20244;-67
2022/05/22 07:01:03;;;;;;;1.43;1.00;;;14.20;99.90;;;;;;5076428;28;20208;-66
2022/05/22 07:03:30;;;;;;;3.33;1.20;;;14.20;99.90;;;;;;5077589;28;20577;-66
2022/05/22 07:05:59;;;;;;;1.13;0.90;;;14.20;99.90;;;;;;5083132;28;20638;-66
2022/05/22 07:08:27;;;;;;;1.10;1.00;;;14.20;99.90;;;;;;5096017;28;20208;-67
2022/05/22 07:13:39;;;;;;;1.20;1.10;;;14.30;99.90;;;;;;5076296;28;20803;-70
2022/05/22 07:16:06;;;;;;;1.70;0.87;;;14.40;99.90;;;;;;5074801;28;20235;-68
2022/05/22 07:18:34;;;;;;;1.77;1.53;;;14.60;99.90;;;;;;5068344;28;20220;-67
2022/05/22 07:21:01;;;;;;;1.23;0.97;;;14.80;99.90;;;;;;5073183;28;20201;-66
2022/05/22 07:23:28;;;;;;;2.47;0.90;;;14.90;99.90;;;;;;5072868;28;20593;-65
2022/05/22 07:25:54;;;;;;;1.60;1.20;;;14.90;99.90;;;;;;5069370;28;20210;-65
2022/05/22 07:28:22;;;;;;;1.20;1.10;;;14.90;99.90;;;;;;5077778;28;20569;-65
2022/05/22 07:30:51;;;;;;;1.63;1.27;;;14.90;99.90;;;;;;5072340;28;20210;-67
2022/05/22 07:33:18;;;;;;;1.03;0.90;;;14.90;99.90;;;;;;5070638;28;20208;-69
2022/05/22 07:35:54;;;;;;;1.03;0.83;;;14.70;99.90;;;;;;5069709;28;20229;-66
2022/05/22 07:38:21;;;;;;;1.03;1.03;;;14.60;99.90;;;;;;5067244;28;20237;-66
2022/05/22 07:40:49;;;;;;;2.23;1.20;;;14.50;99.90;;;;;;5075834;28;20685;-68
2022/05/22 07:43:16;;;;;;;1.07;0.97;;;14.60;99.90;;;;;;5074713;28;20214;-66
2022/05/22 07:45:43;;;;;;;3.07;1.87;;;14.70;99.90;;;;;;5069033;28;20205;-65
2022/05/22 07:48:13;;;;;;;2.97;1.17;;;14.90;99.90;;;;;;5076192;28;20205;-66
2022/05/22 07:50:40;;;;;;;1.00;0.83;;;15.20;99.90;;;;;;5075984;28;20228;-65
2022/05/22 07:53:07;;;;;;;2.43;1.63;;;15.40;99.90;;;;;;5076001;28;20220;-66
2022/05/22 07:55:34;;;;;;;1.37;0.90;;;15.50;99.90;;;;;;5071630;28;20232;-67
2022/05/22 07:58:01;;;;;;;1.33;0.83;;;15.40;99.90;;;;;;5076360;28;20319;-67
2022/05/22 08:00:27;;;;;;;0.83;0.80;;;15.40;99.90;;;;;;5076779;28;20240;-65
2022/05/22 08:02:54;;;;;;;0.90;0.70;;;15.40;99.90;;;;;;5075410;28;20660;-66
2022/05/22 08:05:23;;;;;;;1.50;1.30;;;15.40;99.90;;;;;;5076635;28;20277;-63
2022/05/22 08:07:50;;;;;;;1.50;1.20;;;15.50;99.90;;;;;;5076508;28;20725;-67
2022/05/22 08:10:18;;;;;;;1.10;1.00;;;15.50;99.90;;;;;;5076245;28;20201;-66
2022/05/22 08:12:48;;;;;;;1.63;1.00;;;15.60;99.90;;;;;;5070069;28;20724;-69
2022/05/22 08:15:17;;;;;;;1.60;1.00;;;15.60;99.90;;;;;;5074818;28;20281;-67
2022/05/22 08:17:44;;;;;;;1.10;1.00;;;15.70;99.90;;;;;;5074526;28;20671;-68
2022/05/22 08:20:15;;;;;;;1.37;1.30;;;15.80;99.90;;;;;;5066877;28;20216;-70
2022/05/22 08:22:45;;;;;;;4.27;1.60;;;15.90;99.90;;;;;;5076066;28;20209;-67
2022/05/22 08:25:13;;;;;;;0.80;0.80;;;16.00;99.90;;;;;;5074802;28;20206;-66
2022/05/22 08:27:40;;;;;;;1.00;1.00;;;15.90;99.90;;;;;;5076815;28;20217;-67
2022/05/22 08:30:09;;;;;;;2.07;0.90;;;15.90;99.90;;;;;;5075571;28;20260;-66
2022/05/22 08:32:37;;;;;;;1.10;0.73;;;15.90;99.90;;;;;;5074814;28;20648;-66
2022/05/22 08:35:05;;;;;;;1.23;0.70;;;16.00;99.90;;;;;;5069645;28;20236;-66
2022/05/22 08:37:32;;;;;;;1.33;1.00;;;16.20;99.90;;;;;;5073829;28;20209;-68
2022/05/22 08:40:01;;;;;;;0.90;0.57;;;16.30;99.90;;;;;;5076310;28;20233;-68
2022/05/22 08:42:36;;;;;;;1.97;1.03;;;16.40;99.90;;;;;;5067816;28;20307;-67
2022/05/22 08:45:11;;;;;;;1.30;0.90;;;16.30;99.90;;;;;;5067332;28;20193;-67
2022/05/22 08:47:40;;;;;;;1.47;1.00;;;16.30;99.90;;;;;;5073902;28;20313;-67
2022/05/22 08:50:10;;;;;;;2.40;0.93;;;16.50;99.90;;;;;;5073797;28;20211;-67
2022/05/22 08:52:45;;;;;;;1.03;0.90;;;16.60;99.90;;;;;;5064262;28;20268;-67
2022/05/22 08:55:18;;;;;;;2.00;1.13;;;16.70;99.90;;;;;;5075373;28;20216;-66
2022/05/22 09:00:38;;;;;;;1.20;0.87;;;16.60;99.90;;;;;;5078661;28;20243;-68
2022/05/22 09:03:10;;;;;;;1.53;1.40;;;16.30;99.90;;;;;;5071996;28;20233;-64
2022/05/22 09:05:38;;;;;;;1.17;0.97;;;16.10;99.90;;;;;;5076795;28;20212;-68
2022/05/22 09:08:09;;;;;;;0.83;0.83;;;16.10;99.90;;;;;;5075868;28;20237;-67
2022/05/22 09:10:50;;;;;;;8.23;1.10;;;16.10;99.90;;;;;;5075784;28;20292;-67
2022/05/22 09:13:28;;;;;;;1.37;0.80;;;16.30;99.90;;;;;;5072391;28;20255;-68
2022/05/22 09:16:04;;;;;;;0.80;0.80;;;16.50;99.90;;;;;;5077699;28;20254;-70
2022/05/22 09:18:36;;;;;;;3.37;1.07;;;16.70;99.90;;;;;;5069212;28;20226;-69
2022/05/22 09:21:19;;;;;;;0.80;0.80;;;16.80;99.70;;;;;;5077876;28;20228;-68
2022/05/22 09:24:00;;;;;;;0.70;0.70;;;16.80;98.80;;;;;;5072820;28;20205;-65
2022/05/22 09:26:47;;;;;;;1.63;0.90;;;16.80;98.40;;;;;;5076324;28;20197;-67
2022/05/22 09:29:37;;;;;;;1.50;0.80;;;16.80;97.90;;;;;;5067526;28;20233;-66
2022/05/22 09:32:14;;;;;;;1.70;0.80;;;17.00;97.80;;;;;;5063695;28;20213;-66
2022/05/22 09:34:50;;;;;;;0.95;0.95;;;17.20;96.70;;;;;;5073358;28;20308;-66
2022/05/22 09:37:30;;;;;;;3.28;2.40;;;17.20;95.90;;;;;;5066526;28;20297;-67
2022/05/22 09:40:09;;;;;;;1.38;0.80;;;17.10;95.90;;;;;;5086354;28;20208;-66
2022/05/22 09:42:55;;;;;;;1.23;1.00;;;17.00;95.40;;;;;;5070496;28;20227;-67
2022/05/22 09:45:33;;;;;;;1.03;0.93;;;16.90;95.40;;;;;;5078517;28;20211;-67
2022/05/22 09:48:51;;;;;;;0.70;0.70;;;17.00;95.40;;;;;;5074670;28;20201;-66
2022/05/22 09:54:43;;;;;;;;;;;;;;;;;;;;;
2022/05/22 09:57:34;;;;;;;0.80;0.70;;;16.60;95.20;;;;;;5043094;28;20229;-66
2022/05/22 10:00:08;;;;;;;2.37;1.00;;;16.40;95.10;;;;;;5071951;28;20213;-68
2022/05/22 10:02:45;;;;;;;1.67;0.90;;;16.30;95.50;;;;;;5073701;28;22343;-66
2022/05/22 10:05:30;;;;;;;2.03;1.07;;;16.40;95.50;;;;;;5068777;28;20189;-66
2022/05/22 10:08:07;;;;;;;1.43;1.00;;;16.40;95.10;;;;;;5089740;28;20197;-66
2022/05/22 10:10:40;;;;;;;1.33;1.03;;;16.50;95.40;;;;;;5078683;28;20591;-68
2022/05/22 10:13:16;;;;;;;1.00;0.70;;;16.70;96.00;;;;;;5080169;28;20208;-68
2022/05/22 10:15:55;;;;;;;1.13;0.90;;;17.00;95.80;;;;;;5078304;28;20599;-67
2022/05/22 10:18:42;;;;;;;0.80;0.80;;;17.20;95.30;;;;;;5083032;28;20232;-67
2022/05/22 10:21:20;;;;;;;1.95;0.85;;;17.20;94.10;;;;;;5085825;28;20487;-68
2022/05/22 10:24:09;;;;;;;0.97;0.77;;;17.00;93.40;;;;;;5078784;28;20193;-68
2022/05/22 10:26:54;;;;;;;1.30;0.90;;;16.90;93.90;;;;;;5077124;28;20201;-68
2022/05/22 10:29:28;;;;;;;1.67;1.23;;;16.80;94.00;;;;;;5076453;28;20307;-67
2022/05/22 10:32:02;;;;;;;1.23;0.88;;;16.70;94.20;;;;;;5080873;28;20685;-67
2022/05/22 10:34:37;;;;;;;1.60;0.90;;;16.60;94.10;;;;;;5068509;28;20213;-68
2022/05/22 10:37:11;;;;;;;0.80;0.80;;;16.50;94.10;;;;;;5076374;28;20254;-69
2022/05/22 10:39:38;;;;;;;1.08;1.00;;;16.40;94.10;;;;;;5073274;28;20349;-67
2022/05/22 10:45:03;;;;;;;1.10;0.93;;;16.30;94.10;;;;;;5075140;28;20624;-67
2022/05/22 10:47:34;;;;;;;0.93;0.70;;;16.30;94.30;;;;;;5075665;28;20362;-67
2022/05/22 10:50:13;;;;;;;1.30;1.07;;;16.20;94.30;;;;;;5067285;28;20225;-68
2022/05/22 10:52:40;;;;;;;1.38;1.00;;;16.20;94.40;;;;;;5074992;28;20203;-67
2022/05/22 10:55:19;;;;;;;0.87;0.70;;;16.10;94.10;;;;;;5084200;28;20689;-67
2022/05/22 10:57:55;;;;;;;1.03;0.77;;;16.10;93.70;;;;;;5077594;28;20209;-68
2022/05/22 11:00:23;;;;;;;2.67;0.90;;;16.10;93.80;;;;;;5073595;28;20197;-67
2022/05/22 11:02:52;;;;;;;0.83;0.80;;;16.20;94.10;;;;;;5068317;28;20233;-67
2022/05/22 11:05:22;;;;;;;1.20;1.10;;;16.20;94.30;;;;;;5078211;28;20241;-67
2022/05/22 11:07:51;;;;;;;0.97;0.90;;;16.30;94.50;;;;;;5077424;28;20216;-68
2022/05/22 11:10:23;;;;;;;1.23;1.13;;;16.50;94.50;;;;;;5071212;28;20216;-67
2022/05/22 11:13:03;;;;;;;0.80;0.80;;;16.70;94.00;;;;;;5077871;28;20668;-68
2022/05/22 11:15:32;;;;;;;0.97;0.93;;;16.90;93.20;;;;;;5089471;28;20695;-68
2022/05/22 11:18:09;;;;;;;1.05;1.00;;;17.00;92.40;;;;;;5073745;28;20680;-67
2022/05/22 11:20:41;;;;;;;1.33;0.82;;;17.10;91.80;;;;;;5076828;28;20800;-67
2022/05/22 11:23:22;;;;;;;1.33;0.80;;;17.10;91.40;;;;;;5076685;28;20236;-67
2022/05/22 11:25:59;;;;;;;2.97;0.90;;;17.10;91.40;;;;;;5077211;28;20229;-67
2022/05/22 11:28:52;;;;;;;3.35;0.88;;;17.00;91.70;;;;;;5076373;28;20730;-67
2022/05/22 11:31:34;;;;;;;0.82;0.80;;;17.00;91.90;;;;;;5077153;28;20274;-67
2022/05/22 11:34:16;;;;;;;0.70;0.70;;;17.00;92.00;;;;;;5077431;28;20201;-67
2022/05/22 11:36:56;;;;;;;1.40;0.98;;;16.90;92.30;;;;;;5075188;28;20245;-68
2022/05/22 11:39:42;;;;;;;2.13;1.13;;;16.90;92.70;;;;;;5072597;28;20700;-66
2022/05/22 11:42:17;;;;;;;0.95;0.88;;;16.90;92.70;;;;;;5076790;28;20234;-70
2022/05/22 11:45:20;;;;;;;0.80;0.80;;;16.80;92.80;;;;;;5071318;28;20203;-68
2022/05/22 11:48:05;;;;;;;1.10;1.00;;;16.80;93.00;;;;;;5067542;28;20230;-67
2022/05/22 11:50:39;;;;;;;1.13;1.08;;;16.70;92.70;;;;;;5071107;28;20211;-67
2022/05/22 11:53:25;;;;;;;1.73;1.10;;;16.50;92.70;;;;;;5076994;28;20236;-68
2022/05/22 11:56:06;;;;;;;1.00;0.80;;;16.40;92.90;;;;;;5076035;28;20333;-67
2022/05/22 11:58:38;;;;;;;3.42;0.88;;;16.40;93.30;;;;;;5076143;28;20237;-67
2022/05/22 12:01:13;;;;;;;3.30;1.30;;;16.40;93.50;;;;;;5069508;28;20201;-68
2022/05/22 12:03:59;;;;;;;1.97;1.33;;;16.60;93.30;;;;;;5074060;28;20228;-67
2022/05/22 12:06:42;;;;;;;3.20;1.03;;;16.70;93.00;;;;;;5068972;28;20969;-68
2022/05/22 12:09:17;;;;;;;0.85;0.85;;;17.10;92.50;;;;;;5073486;28;20232;-67
2022/05/22 12:12:01;;;;;;;0.88;0.85;;;17.30;91.80;;;;;;5079176;28;20234;-67
2022/05/22 12:14:34;;;;;;;0.90;0.90;;;17.40;91.20;;;;;;5080429;28;20324;-68
2022/05/22 12:17:07;;;;;;;1.83;0.95;;;17.50;91.20;;;;;;5082080;28;20312;-67
2022/05/22 12:19:41;;;;;;;1.53;0.87;;;17.50;91.00;;;;;;5085307;28;20683;-67
2022/05/22 12:22:17;;;;;;;2.23;0.90;;;17.50;91.00;;;;;;5075447;28;20704;-67
2022/05/22 12:24:51;;;;;;;1.40;1.00;;;17.50;91.00;;;;;;5074924;28;20205;-69
2022/05/22 12:27:26;;;;;;;1.83;0.90;;;17.50;90.60;;;;;;5078373;28;20196;-65
2022/05/22 12:30:04;;;;;;;1.97;1.10;;;17.40;90.40;;;;;;5070975;28;20321;-65
2022/05/22 12:32:37;;;;;;;1.15;1.05;;;17.40;90.10;;;;;;5081730;28;20733;-67
2022/05/22 12:35:05;;;;;;;0.97;0.80;;;17.40;90.10;;;;;;5080912;28;20715;-67
2022/05/22 12:37:43;;;;;;;1.52;0.82;;;17.50;90.00;;;;;;5074369;28;20209;-67
2022/05/22 12:40:25;;;;;;;0.93;0.93;;;17.60;89.70;;;;;;5067443;28;20208;-66
2022/05/22 12:42:56;;;;;;;1.65;0.82;;;17.70;88.00;;;;;;5075540;28;20228;-67
2022/05/22 12:45:25;;;;;;;2.92;0.93;;;17.70;87.00;;;;;;5065674;28;20276;-68
2022/05/22 12:47:54;;;;;;;1.15;0.70;;;17.70;86.30;;;;;;5065475;28;20951;-68
2022/05/22 12:50:33;;;;;;;2.67;0.93;;;17.70;86.50;;;;;;5073904;28;20205;-67
2022/05/22 12:53:15;;;;;;;2.30;0.90;;;17.60;87.00;;;;;;5077258;28;20204;-67
2022/05/22 12:58:45;;;;;;;1.77;0.93;;;17.50;87.30;;;;;;5077213;28;20265;-66
2022/05/22 13:01:38;;;;;;;1.52;1.10;;;17.50;87.80;;;;;;5072027;28;20197;-64
2022/05/22 13:04:18;;;;;;;1.33;1.10;;;17.40;88.30;;;;;;5074370;28;20239;-66
2022/05/22 13:06:50;;;;;;;1.58;1.20;;;17.40;89.00;;;;;;5075344;28;20488;-67
2022/05/22 13:09:25;;;;;;;2.47;1.13;;;17.40;90.20;;;;;;5065379;28;20286;-66
2022/05/22 13:11:56;;;;;;;2.10;1.10;;;17.40;90.10;;;;;;5075011;28;20213;-67
2022/05/22 13:14:28;;;;;;;3.47;1.15;;;17.50;90.30;;;;;;5072928;28;20773;-68
2022/05/22 13:16:55;;;;;;;1.45;1.33;;;17.50;90.20;;;;;;5074924;28;20236;-67
2022/05/22 13:19:24;;;;;;;0.93;0.93;;;17.50;90.20;;;;;;5073436;28;20234;-66
2022/05/22 13:21:53;;;;;;;1.20;1.10;;;17.50;90.30;;;;;;5070321;28;20209;-67
2022/05/22 13:24:28;;;;;;;2.30;1.20;;;17.60;90.30;;;;;;5074927;28;20596;-67
2022/05/22 13:27:01;;;;;;;1.73;1.40;;;17.70;90.20;;;;;;5074111;28;20205;-67
2022/05/22 13:29:35;;;;;;;1.30;1.20;;;17.80;90.20;;;;;;5070199;28;20252;-69
2022/05/22 13:32:05;;;;;;;1.77;1.15;;;17.80;89.80;;;;;;5064770;28;20197;-69
2022/05/22 13:34:33;;;;;;;2.17;1.00;;;17.80;89.10;;;;;;5074888;28;20209;-69